Garth Foss — WCE4732 — position and weather

sailwx.info

Track history (hours):
 
Tides and Currents Weather Stations Pressure Air Temp Water Temp Dewpoint Dewpoint Depression Visibility Wind Speed Wind Dir Waves Ship Positions

Garth Foss

Owner: FOSS MARITIME CO, SEATTLE, WA. More information available from US FCC via Universal Licensing System and Coast Guard Vessel Documentation Center.

Last reported at 2017-Dec-11 16:56 UTC. Time now 2017-Dec-14 15:21 UTC.
Position N 48°31' W 122°33'.

Length 47 m; draft 6.2 m.

Type: Towing. MMSI: 366767140.

Date/timePositionNaut miles runAvg speedWind from/ knotsBaromVisibWave heightAir tempDewpointWater temp
2017-Dec-11 16:56N 48°31' W 122°33'0 0.0
2017-Dec-11 16:26N 48°31' W 122°33'0 0.0
2017-Dec-11 15:53N 48°31' W 122°33'0 0.0
2017-Dec-11 15:29N 48°31' W 122°33'0 0.0
2017-Dec-11 14:56N 48°31' W 122°33'0 0.0
2017-Dec-11 14:26N 48°31' W 122°33'0 0.0
2017-Dec-11 13:56N 48°31' W 122°33'0 0.0
2017-Dec-11 13:29N 48°31' W 122°33'0 0.0
2017-Dec-11 12:56N 48°31' W 122°33'0 0.0
2017-Dec-11 12:26N 48°31' W 122°33'0 0.0
2017-Dec-11 11:56N 48°31' W 122°33'0 0.0
2017-Dec-11 11:26N 48°31' W 122°33'0 0.0
2017-Dec-11 10:56N 48°31' W 122°33'0 0.0
2017-Dec-11 10:29N 48°31' W 122°33'0 0.0
2017-Dec-11 09:56N 48°31' W 122°33'0 0.0
2017-Dec-11 09:26N 48°31' W 122°33'0 0.0
2017-Dec-11 08:56N 48°31' W 122°33'1 2.1
2017-Dec-11 08:30N 48°31' W 122°34'0 0.5
2017-Dec-11 08:00N 48°31' W 122°35'0 0.1
2017-Dec-11 07:30N 48°31' W 122°35'0 0.8
2017-Dec-11 07:00N 48°31' W 122°34'1 1.8
2017-Dec-11 06:30N 48°31' W 122°35'0 0.3
2017-Dec-11 05:59N 48°31' W 122°36'0 0.0
2017-Dec-11 05:29N 48°31' W 122°36'0 0.0
2017-Dec-11 04:59N 48°31' W 122°36'0 0.0
2017-Dec-11 04:29N 48°31' W 122°36'0 0.0
2017-Dec-11 03:59N 48°31' W 122°36'0 0.0
2017-Dec-11 03:29N 48°31' W 122°36'0 0.0
2017-Dec-11 02:59N 48°31' W 122°36'0 0.0
2017-Dec-11 02:29N 48°31' W 122°36'0 0.0
2017-Dec-11 01:53N 48°31' W 122°36'0 0.1
2017-Dec-11 01:30N 48°31' W 122°36'4 7.1
2017-Dec-11 01:00N 48°31' W 122°41'4 7.6
2017-Dec-11 00:30N 48°28' W 122°44'4 8.7
2017-Dec-11 00:00N 48°23' W 122°44'5 9.3
2017-Dec-10 23:29N 48°19' W 122°46'5 9.4
2017-Dec-10 22:59N 48°14' W 122°48'712.3
2017-Dec-10 22:26N 48°09' W 122°42'712.5
2017-Dec-10 21:54N 48°03' W 122°38'512.8
2017-Dec-10 21:30N 47°58' W 122°34'611.1
2017-Dec-10 21:00N 47°54' W 122°29'510.4
2017-Dec-10 20:30N 47°49' W 122°27'510.4
2017-Dec-10 20:00N 47°44' W 122°26'510.4
2017-Dec-10 19:30N 47°39' W 122°26'5 9.3
2017-Dec-10 19:00N 47°36' W 122°21'0 0.2
2017-Dec-10 18:30N 47°36' W 122°21'0 0.3
2017-Dec-10 18:00N 47°36' W 122°21'1 2.6
2017-Dec-10 17:30N 47°34' W 122°21'1 2.4
2017-Dec-10 17:00N 47°33' W 122°21'0 0.7
2017-Dec-10 16:30N 47°34' W 122°21'2 3.6
2017-Dec-10 16:00N 47°35' W 122°22'1 1.1
2017-Dec-10 15:30N 47°36' W 122°21'1 1.8
2017-Dec-10 15:00N 47°37' W 122°21'2 3.6
2017-Dec-10 14:30N 47°35' W 122°21'0 0.1
2017-Dec-10 14:00N 47°35' W 122°21'1 2.1
2017-Dec-10 13:30N 47°36' W 122°21'1 2.1
2017-Dec-10 13:00N 47°37' W 122°22'1 2.5
2017-Dec-10 12:30N 47°36' W 122°20'0 0.0
2017-Dec-10 11:57N 47°36' W 122°20'0 0.0
2017-Dec-10 11:31N 47°36' W 122°20'1 1.2
2017-Dec-10 11:01N 47°35' W 122°21'0 0.7
2017-Dec-10 10:31N 47°36' W 122°21'1 3.0
2017-Dec-10 10:01N 47°37' W 122°22'1 1.3
2017-Dec-10 09:31N 47°37' W 122°23'0 0.4
2017-Dec-10 09:00N 47°37' W 122°23'0 0.5
2017-Dec-10 08:31N 47°37' W 122°22'0 0.3
2017-Dec-10 08:01N 47°37' W 122°22'4 8.1
2017-Dec-10 07:31N 47°39' W 122°27'5 9.5
2017-Dec-10 07:01N 47°44' W 122°27'5 9.7
2017-Dec-10 06:30N 47°49' W 122°28'5 9.9
2017-Dec-10 06:00N 47°54' W 122°30'5 9.5
2017-Dec-10 05:31N 47°57' W 122°34'1210.2
2017-Dec-10 04:19N 48°08' W 122°43'511.4
2017-Dec-10 03:54N 48°11' W 122°49'410.6
2017-Dec-10 03:29N 48°11' W 122°55'510.7
2017-Dec-10 03:00N 48°12' W 123°03'5 9.8
2017-Dec-10 02:30N 48°11' W 123°10'5 9.6
2017-Dec-10 02:00N 48°10' W 123°17'5 9.9
2017-Dec-10 01:31N 48°08' W 123°24'2 4.0
2017-Dec-10 01:01N 48°08' W 123°27'2 3.4
2017-Dec-10 00:30N 48°08' W 123°24'612.9
2017-Dec-10 00:00N 48°12' W 123°17'713.2
2017-Dec-09 23:30N 48°16' W 123°09'713.0
2017-Dec-09 22:59N 48°20' W 123°00'612.8
2017-Dec-09 22:31N 48°23' W 122°52'713.4
2017-Dec-09 22:00N 48°28' W 122°45'714.5
2017-Dec-09 21:31N 48°35' W 122°46'713.8
2017-Dec-09 21:00N 48°42' W 122°44'612.1
2017-Dec-09 20:29N 48°48' W 122°44'1 2.7
2017-Dec-09 19:57N 48°49' W 122°43'0 0.6
2017-Dec-09 19:25N 48°49' W 122°44'2 5.1
2017-Dec-09 19:00N 48°47' W 122°45'510.4
2017-Dec-09 18:31N 48°42' W 122°44'5 9.3
2017-Dec-09 18:00N 48°38' W 122°45'611.6
2017-Dec-09 17:31N 48°32' W 122°45'612.1
2017-Dec-09 17:01N 48°26' W 122°47'714.0
2017-Dec-09 16:30N 48°21' W 122°54'713.8
2017-Dec-09 16:00N 48°18' W 123°03'4 7.2
2017-Dec-09 15:30N 48°14' W 123°06'4 3.6
2017-Dec-09 14:15N 48°10' W 123°06'0 0.0
2017-Dec-09 13:45N 48°10' W 123°06'0 0.0
2017-Dec-09 13:24N 48°10' W 123°06'0 0.0
2017-Dec-09 12:12N 48°10' W 123°06'0 0.0
2017-Dec-09 11:51N 48°10' W 123°06'0 0.0
2017-Dec-09 11:30N 48°10' W 123°06'0 0.0
2017-Dec-09 10:57N 48°10' W 123°06'0 0.0
2017-Dec-09 10:30N 48°10' W 123°06'0 0.0
2017-Dec-09 10:00N 48°10' W 123°06'0 0.0
2017-Dec-09 09:30N 48°10' W 123°06'0 0.0
2017-Dec-09 09:00N 48°10' W 123°06'0 0.0
2017-Dec-09 08:30N 48°10' W 123°06'0 0.0
2017-Dec-09 08:00N 48°10' W 123°06'0 0.0
2017-Dec-09 07:15N 48°10' W 123°06'0 0.0
2017-Dec-09 06:51N 48°10' W 123°06'0 0.0
2017-Dec-09 06:21N 48°10' W 123°06'0 0.0
2017-Dec-09 05:54N 48°10' W 123°06'0 0.0
2017-Dec-09 05:30N 48°10' W 123°06'0 0.1
2017-Dec-09 05:00N 48°10' W 123°06'5 9.5
2017-Dec-09 04:30N 48°14' W 123°03'510.6
2017-Dec-09 03:59N 48°19' W 122°59'5 9.5
2017-Dec-09 03:31N 48°22' W 122°54'510.4
2017-Dec-09 03:00N 48°25' W 122°48'510.6
2017-Dec-09 02:30N 48°30' W 122°43'4 8.5
2017-Dec-09 02:00N 48°32' W 122°38'2 4.5
2017-Dec-09 01:30N 48°31' W 122°35'0 0.2
2017-Dec-09 01:01N 48°31' W 122°35'1 2.5
2017-Dec-09 00:30N 48°31' W 122°33'0 0.1
2017-Dec-08 23:56N 48°31' W 122°33'0 0.0
2017-Dec-08 23:29N 48°31' W 122°33'0 0.0
2017-Dec-08 22:56N 48°31' W 122°33'0 0.0
2017-Dec-08 22:26N 48°31' W 122°33'0 0.0
2017-Dec-08 21:50N 48°31' W 122°33'0 0.0
2017-Dec-08 21:26N 48°31' W 122°33'0 0.0
2017-Dec-08 20:56N 48°31' W 122°33'0 0.0
2017-Dec-08 20:26N 48°31' W 122°33'0 0.0
2017-Dec-08 19:56N 48°31' W 122°33'0 0.0
2017-Dec-08 19:20N 48°31' W 122°33'0 0.0
2017-Dec-08 18:50N 48°31' W 122°33'0 0.0
2017-Dec-08 18:26N 48°31' W 122°33'0 0.0
2017-Dec-08 17:56N 48°31' W 122°33'0 0.1
2017-Dec-08 17:26N 48°31' W 122°33'1 2.6
2017-Dec-08 17:00N 48°31' W 122°34'2 3.3
2017-Dec-08 16:30N 48°31' W 122°37'0 0.3
2017-Dec-08 16:00N 48°31' W 122°37'2 4.9
2017-Dec-08 15:30N 48°30' W 122°40'1 1.0
2017-Dec-08 14:58N 48°31' W 122°40'0 0.0
2017-Dec-08 14:28N 48°31' W 122°40'0 0.0
2017-Dec-08 13:55N 48°31' W 122°40'0 0.0
2017-Dec-08 13:28N 48°31' W 122°40'0 0.0
2017-Dec-08 12:58N 48°31' W 122°40'0 0.1
2017-Dec-08 12:25N 48°31' W 122°40'0 0.1
2017-Dec-08 11:55N 48°31' W 122°40'0 0.0
2017-Dec-08 11:25N 48°31' W 122°40'0 0.0
2017-Dec-08 10:52N 48°31' W 122°40'0 0.0
2017-Dec-08 10:28N 48°31' W 122°40'2 4.5
2017-Dec-08 10:01N 48°31' W 122°37'0 0.1
2017-Dec-08 09:30N 48°31' W 122°37'1 2.0
2017-Dec-08 09:00N 48°31' W 122°35'1 2.2
2017-Dec-08 08:30N 48°30' W 122°34'0 0.8
2017-Dec-08 08:00N 48°31' W 122°35'0 0.3
2017-Dec-08 07:30N 48°31' W 122°35'0 0.7
2017-Dec-08 07:00N 48°31' W 122°34'2 3.2
2017-Dec-08 06:31N 48°31' W 122°36'0 1.0
2017-Dec-08 06:00N 48°31' W 122°37'2 4.3
2017-Dec-08 05:30N 48°31' W 122°34'0 0.2
2017-Dec-08 05:00N 48°31' W 122°34'0 0.6
2017-Dec-08 04:30N 48°31' W 122°35'0 0.4
2017-Dec-08 04:00N 48°31' W 122°35'1 1.2
2017-Dec-08 03:30N 48°31' W 122°35'0 0.1
2017-Dec-08 03:00N 48°31' W 122°35'0 0.7
2017-Dec-08 02:30N 48°31' W 122°34'3 5.7
2017-Dec-08 02:00N 48°34' W 122°35'510.2
2017-Dec-08 01:30N 48°39' W 122°33'510.0
2017-Dec-08 01:00N 48°44' W 122°31'1 0.5
2017-Dec-07 23:04N 48°45' W 122°30'0 0.0
2017-Dec-07 19:58N 48°45' W 122°30'0 0.0
2017-Dec-07 19:22N 48°45' W 122°30'0 0.0
2017-Dec-07 18:52N 48°45' W 122°30'0 0.0
2017-Dec-07 18:24N 48°45' W 122°30'3 7.9
2017-Dec-07 18:00N 48°42' W 122°32'5 9.7
2017-Dec-07 17:30N 48°38' W 122°36'510.0
2017-Dec-07 17:00N 48°34' W 122°40'3 6.2
2017-Dec-07 16:30N 48°31' W 122°41'1 2.4
2017-Dec-07 16:00N 48°31' W 122°39'2 3.2
2017-Dec-07 15:30N 48°31' W 122°37'0 0.2
2017-Dec-07 15:00N 48°31' W 122°37'1 1.7
2017-Dec-07 14:31N 48°31' W 122°36'0 0.1
2017-Dec-07 14:01N 48°31' W 122°36'0 0.1
2017-Dec-07 13:31N 48°31' W 122°36'0 0.0
2017-Dec-07 12:55N 48°31' W 122°36'0 0.0
2017-Dec-07 12:31N 48°31' W 122°36'0 0.1
2017-Dec-07 12:01N 48°31' W 122°36'0 0.1
2017-Dec-07 11:31N 48°31' W 122°36'0 0.1
2017-Dec-07 11:01N 48°31' W 122°36'0 0.1
2017-Dec-07 10:31N 48°31' W 122°36'0 0.1
2017-Dec-07 09:55N 48°31' W 122°36'0 0.0
2017-Dec-07 09:30N 48°31' W 122°36'0 0.2
2017-Dec-07 09:00N 48°31' W 122°36'0 0.0
2017-Dec-07 08:30N 48°31' W 122°36'1 1.5
2017-Dec-07 08:00N 48°31' W 122°35'0 0.7
2017-Dec-07 07:31N 48°30' W 122°34'1 1.5
2017-Dec-07 07:00N 48°31' W 122°34'0 0.4
2017-Dec-07 06:30N 48°31' W 122°34'0 0.4
2017-Dec-07 06:00N 48°31' W 122°34'5 9.1
2017-Dec-07 05:30N 48°35' W 122°37'510.6
2017-Dec-07 05:01N 48°40' W 122°41'611.6
2017-Dec-07 04:30N 48°45' W 122°44'6 4.9
2017-Dec-07 03:14N 48°52' W 122°46'0 1.5
2017-Dec-07 02:58N 48°51' W 122°45'3 2.8
2017-Dec-07 02:04N 48°49' W 122°44'0 6.0
2017-Dec-07 02:00N 48°49' W 122°44'0 0.5
2017-Dec-07 01:29N 48°49' W 122°43'0 0.0
2017-Dec-07 00:59N 48°49' W 122°43'0 0.0
2017-Dec-07 00:23N 48°49' W 122°43'0 0.0
2017-Dec-06 23:53N 48°49' W 122°43'0 0.0
2017-Dec-06 23:20N 48°49' W 122°43'0 0.0
2017-Dec-06 22:50N 48°49' W 122°43'0 0.0
2017-Dec-06 22:11N 48°49' W 122°43'0 0.0
2017-Dec-06 21:59N 48°49' W 122°43'0 0.0
2017-Dec-06 21:11N 48°49' W 122°43'0 0.0
2017-Dec-06 20:59N 48°49' W 122°43'  
2017-Dec-04 10:31N 48°40' W 122°43'5 9.7
2017-Dec-04 10:00N 48°45' W 122°45'5 8.6
2017-Dec-04 09:28N 48°50' W 122°44'0 0.3
2017-Dec-04 08:42N 48°50' W 122°43'0 1.8
2017-Dec-04 08:25N 48°49' W 122°43'0 0.2
2017-Dec-04 07:21N 48°49' W 122°43'0 0.1
2017-Dec-04 07:00N 48°49' W 122°43'0 0.0
2017-Dec-04 06:30N 48°49' W 122°43'0 0.0
2017-Dec-04 05:54N 48°49' W 122°43'0 0.0
2017-Dec-04 05:21N 48°49' W 122°43'0 0.0
2017-Dec-04 03:51N 48°49' W 122°43'0 0.0
2017-Dec-04 03:30N 48°49' W 122°43'0 0.1
2017-Dec-04 02:51N 48°49' W 122°43'0 0.0
2017-Dec-04 02:30N 48°49' W 122°43'0 0.0
2017-Dec-04 01:54N 48°49' W 122°43'0 0.0
2017-Dec-04 01:30N 48°49' W 122°43'0 0.0
2017-Dec-04 01:00N 48°49' W 122°43'0 0.0
2017-Dec-04 00:30N 48°49' W 122°43'0 0.0
2017-Dec-04 00:00N 48°49' W 122°43'0 0.0
2017-Dec-03 23:30N 48°49' W 122°43'0 0.0
2017-Dec-03 23:00N 48°49' W 122°43'0 0.0
2017-Dec-03 22:21N 48°49' W 122°43'0 0.0
2017-Dec-03 21:54N 48°49' W 122°43'0 0.0
2017-Dec-03 21:30N 48°49' W 122°43'0 0.0
2017-Dec-03 21:00N 48°49' W 122°43'0 0.0
2017-Dec-03 20:30N 48°49' W 122°43'1 1.0
2017-Dec-03 19:58N 48°50' W 122°43'0 0.3
2017-Dec-03 19:30N 48°49' W 122°43'1 2.2
2017-Dec-03 18:59N 48°48' W 122°44'4 8.2
2017-Dec-03 18:29N 48°44' W 122°45'511.2
2017-Dec-03 18:00N 48°39' W 122°44'5 9.3
2017-Dec-03 17:30N 48°35' W 122°45'510.2
2017-Dec-03 17:00N 48°29' W 122°45'510.4
2017-Dec-03 16:30N 48°25' W 122°47'5 9.1
2017-Dec-03 16:00N 48°22' W 122°53'5 9.5
2017-Dec-03 15:30N 48°19' W 122°59'611.7
2017-Dec-03 14:59N 48°16' W 123°07'1 1.2
2017-Dec-03 14:29N 48°15' W 123°06'5 9.8
2017-Dec-03 14:00N 48°11' W 123°06'1 0.5
2017-Dec-03 12:07N 48°10' W 123°06'0 0.0
2017-Dec-03 10:25N 48°10' W 123°06'0 0.0
2017-Dec-03 07:58N 48°10' W 123°06'0 0.0
2017-Dec-03 07:25N 48°10' W 123°06'0 0.0
2017-Dec-03 06:58N 48°10' W 123°06'0 0.0
2017-Dec-03 06:25N 48°10' W 123°06'0 0.0
2017-Dec-03 05:58N 48°10' W 123°06'0 0.0
2017-Dec-03 05:01N 48°10' W 123°06'0 0.1
2017-Dec-03 04:46N 48°10' W 123°06'0 0.0
2017-Dec-03 04:22N 48°10' W 123°06'0 0.0
2017-Dec-03 03:58N 48°10' W 123°06'0 0.0
2017-Dec-03 03:22N 48°10' W 123°06'0 0.0
2017-Dec-03 02:43N 48°10' W 123°06'0 0.0
2017-Dec-03 02:22N 48°10' W 123°06'0 0.0
2017-Dec-03 01:55N 48°10' W 123°06'0 0.0
2017-Dec-03 01:25N 48°10' W 123°06'0 0.0
2017-Dec-03 00:16N 48°10' W 123°06'0 0.0
2017-Dec-02 23:37N 48°10' W 123°06'0 0.0
2017-Dec-02 23:19N 48°10' W 123°06'0 0.0
2017-Dec-02 19:04N 48°10' W 123°06'0 0.0
2017-Dec-02 18:58N 48°10' W 123°06'0 0.0
2017-Dec-02 18:13N 48°10' W 123°06'0 0.0
2017-Dec-02 17:55N 48°10' W 123°06'0 0.0
2017-Dec-02 17:22N 48°10' W 123°06'0 0.0
2017-Dec-02 16:58N 48°10' W 123°06'0 0.1
2017-Dec-02 16:15N 48°10' W 123°06'2 7.9
2017-Dec-02 16:00N 48°12' W 123°05'3 6.0
2017-Dec-02 15:30N 48°15' W 123°06'3 6.8
2017-Dec-02 15:00N 48°18' W 123°04'713.6
2017-Dec-02 14:31N 48°21' W 122°56'713.2
2017-Dec-02 14:00N 48°25' W 122°47'510.2
2017-Dec-02 13:30N 48°30' W 122°44'510.4
2017-Dec-02 13:00N 48°35' W 122°45'5 9.3
2017-Dec-02 12:31N 48°39' W 122°44'4 8.6
2017-Dec-02 12:00N 48°44' W 122°45'2 4.3
2017-Dec-02 11:30N 48°46' W 122°46'2 4.1
2017-Dec-02 10:55N 48°48' W 122°46'3 6.8
2017-Dec-02 10:30N 48°51' W 122°47'1 1.7
2017-Dec-02 09:53N 48°52' W 122°46'1 1.6
2017-Dec-02 09:10N 48°51' W 122°46'0 2.2
2017-Dec-02 09:00N 48°50' W 122°45'6 8.5
2017-Dec-02 08:18N 48°44' W 122°44'311.0
2017-Dec-02 08:00N 48°41' W 122°42'510.2
2017-Dec-02 07:30N 48°37' W 122°39'510.4
2017-Dec-02 07:00N 48°32' W 122°40'3 6.7
2017-Dec-02 06:30N 48°31' W 122°35'1 1.4
2017-Dec-02 06:00N 48°31' W 122°35'1 1.6
2017-Dec-02 05:30N 48°31' W 122°34'4 8.6
2017-Dec-02 05:00N 48°36' W 122°34'5 9.6
2017-Dec-02 04:30N 48°40' W 122°33'5 9.2
2017-Dec-02 04:00N 48°45' W 122°30'0 0.0
2017-Dec-02 02:30N 48°45' W 122°30'0 0.0
2017-Dec-02 01:51N 48°45' W 122°30'0 0.0
2017-Dec-02 01:24N 48°45' W 122°30'0 0.0
2017-Dec-02 01:00N 48°45' W 122°30'0 0.0
2017-Dec-02 00:21N 48°45' W 122°30'0 0.0
2017-Dec-02 00:00N 48°45' W 122°30'0 0.0
2017-Dec-01 23:30N 48°45' W 122°30'0 0.0
2017-Dec-01 22:45N 48°45' W 122°30'0 0.0
2017-Dec-01 22:09N 48°45' W 122°30'0 0.0
2017-Dec-01 22:00N 48°45' W 122°30'0 0.0
2017-Dec-01 21:30N 48°45' W 122°30'0 0.0
2017-Dec-01 20:00N 48°45' W 122°30'0 0.0
2017-Dec-01 19:21N 48°45' W 122°30'0 0.0
2017-Dec-01 19:00N 48°45' W 122°30'1 2.1
2017-Dec-01 18:31N 48°45' W 122°31'0 0.0
2017-Dec-01 18:00N 48°46' W 122°31'1 2.4
2017-Dec-01 17:30N 48°45' W 122°32'1 1.6
2017-Dec-01 17:00N 48°44' W 122°33'  
Track history (hours):
 
Tides and Currents Weather Stations Pressure Air Temp Water Temp Dewpoint Dewpoint Depression Visibility Wind Speed Wind Dir Waves Ship Positions

Garth Foss

Owner: FOSS MARITIME CO, SEATTLE, WA. More information available from US FCC via Universal Licensing System and Coast Guard Vessel Documentation Center.

Last reported at 2017-Dec-11 16:56 UTC. Time now 2017-Dec-14 15:21 UTC.
Position N 48°31' W 122°33'.

Length 47 m; draft 6.2 m.

Type: Towing. MMSI: 366767140.

Date/timePositionNaut miles runAvg speedWind from/ knotsBaromVisibWave heightAir tempDewpointWater temp
2017-Dec-11 16:56N 48°31' W 122°33'0 0.0
2017-Dec-11 16:26N 48°31' W 122°33'0 0.0
2017-Dec-11 15:53N 48°31' W 122°33'0 0.0
2017-Dec-11 15:29N 48°31' W 122°33'0 0.0
2017-Dec-11 14:56N 48°31' W 122°33'0 0.0
2017-Dec-11 14:26N 48°31' W 122°33'0 0.0
2017-Dec-11 13:56N 48°31' W 122°33'0 0.0
2017-Dec-11 13:29N 48°31' W 122°33'0 0.0
2017-Dec-11 12:56N 48°31' W 122°33'0 0.0
2017-Dec-11 12:26N 48°31' W 122°33'0 0.0
2017-Dec-11 11:56N 48°31' W 122°33'0 0.0
2017-Dec-11 11:26N 48°31' W 122°33'0 0.0
2017-Dec-11 10:56N 48°31' W 122°33'0 0.0
2017-Dec-11 10:29N 48°31' W 122°33'0 0.0
2017-Dec-11 09:56N 48°31' W 122°33'0 0.0
2017-Dec-11 09:26N 48°31' W 122°33'0 0.0
2017-Dec-11 08:56N 48°31' W 122°33'1 2.1
2017-Dec-11 08:30N 48°31' W 122°34'0 0.5
2017-Dec-11 08:00N 48°31' W 122°35'0 0.1
2017-Dec-11 07:30N 48°31' W 122°35'0 0.8
2017-Dec-11 07:00N 48°31' W 122°34'1 1.8
2017-Dec-11 06:30N 48°31' W 122°35'0 0.3
2017-Dec-11 05:59N 48°31' W 122°36'0 0.0
2017-Dec-11 05:29N 48°31' W 122°36'0 0.0
2017-Dec-11 04:59N 48°31' W 122°36'0 0.0
2017-Dec-11 04:29N 48°31' W 122°36'0 0.0
2017-Dec-11 03:59N 48°31' W 122°36'0 0.0
2017-Dec-11 03:29N 48°31' W 122°36'0 0.0
2017-Dec-11 02:59N 48°31' W 122°36'0 0.0
2017-Dec-11 02:29N 48°31' W 122°36'0 0.0
2017-Dec-11 01:53N 48°31' W 122°36'0 0.1
2017-Dec-11 01:30N 48°31' W 122°36'4 7.1
2017-Dec-11 01:00N 48°31' W 122°41'4 7.6
2017-Dec-11 00:30N 48°28' W 122°44'4 8.7
2017-Dec-11 00:00N 48°23' W 122°44'5 9.3
2017-Dec-10 23:29N 48°19' W 122°46'5 9.4
2017-Dec-10 22:59N 48°14' W 122°48'712.3
2017-Dec-10 22:26N 48°09' W 122°42'712.5
2017-Dec-10 21:54N 48°03' W 122°38'512.8
2017-Dec-10 21:30N 47°58' W 122°34'611.1
2017-Dec-10 21:00N 47°54' W 122°29'510.4
2017-Dec-10 20:30N 47°49' W 122°27'510.4
2017-Dec-10 20:00N 47°44' W 122°26'510.4
2017-Dec-10 19:30N 47°39' W 122°26'5 9.3
2017-Dec-10 19:00N 47°36' W 122°21'0 0.2
2017-Dec-10 18:30N 47°36' W 122°21'0 0.3
2017-Dec-10 18:00N 47°36' W 122°21'1 2.6
2017-Dec-10 17:30N 47°34' W 122°21'1 2.4
2017-Dec-10 17:00N 47°33' W 122°21'0 0.7
2017-Dec-10 16:30N 47°34' W 122°21'2 3.6
2017-Dec-10 16:00N 47°35' W 122°22'1 1.1
2017-Dec-10 15:30N 47°36' W 122°21'1 1.8
2017-Dec-10 15:00N 47°37' W 122°21'2 3.6
2017-Dec-10 14:30N 47°35' W 122°21'0 0.1
2017-Dec-10 14:00N 47°35' W 122°21'1 2.1
2017-Dec-10 13:30N 47°36' W 122°21'1 2.1
2017-Dec-10 13:00N 47°37' W 122°22'1 2.5
2017-Dec-10 12:30N 47°36' W 122°20'0 0.0
2017-Dec-10 11:57N 47°36' W 122°20'0 0.0
2017-Dec-10 11:31N 47°36' W 122°20'1 1.2
2017-Dec-10 11:01N 47°35' W 122°21'0 0.7
2017-Dec-10 10:31N 47°36' W 122°21'1 3.0
2017-Dec-10 10:01N 47°37' W 122°22'1 1.3
2017-Dec-10 09:31N 47°37' W 122°23'0 0.4
2017-Dec-10 09:00N 47°37' W 122°23'0 0.5
2017-Dec-10 08:31N 47°37' W 122°22'0 0.3
2017-Dec-10 08:01N 47°37' W 122°22'4 8.1
2017-Dec-10 07:31N 47°39' W 122°27'5 9.5
2017-Dec-10 07:01N 47°44' W 122°27'5 9.7
2017-Dec-10 06:30N 47°49' W 122°28'5 9.9
2017-Dec-10 06:00N 47°54' W 122°30'5 9.5
2017-Dec-10 05:31N 47°57' W 122°34'1210.2
2017-Dec-10 04:19N 48°08' W 122°43'511.4
2017-Dec-10 03:54N 48°11' W 122°49'410.6
2017-Dec-10 03:29N 48°11' W 122°55'510.7
2017-Dec-10 03:00N 48°12' W 123°03'5 9.8
2017-Dec-10 02:30N 48°11' W 123°10'5 9.6
2017-Dec-10 02:00N 48°10' W 123°17'5 9.9
2017-Dec-10 01:31N 48°08' W 123°24'2 4.0
2017-Dec-10 01:01N 48°08' W 123°27'2 3.4
2017-Dec-10 00:30N 48°08' W 123°24'612.9
2017-Dec-10 00:00N 48°12' W 123°17'713.2
2017-Dec-09 23:30N 48°16' W 123°09'713.0
2017-Dec-09 22:59N 48°20' W 123°00'612.8
2017-Dec-09 22:31N 48°23' W 122°52'713.4
2017-Dec-09 22:00N 48°28' W 122°45'714.5
2017-Dec-09 21:31N 48°35' W 122°46'713.8
2017-Dec-09 21:00N 48°42' W 122°44'612.1
2017-Dec-09 20:29N 48°48' W 122°44'1 2.7
2017-Dec-09 19:57N 48°49' W 122°43'0 0.6
2017-Dec-09 19:25N 48°49' W 122°44'2 5.1
2017-Dec-09 19:00N 48°47' W 122°45'510.4
2017-Dec-09 18:31N 48°42' W 122°44'5 9.3
2017-Dec-09 18:00N 48°38' W 122°45'611.6
2017-Dec-09 17:31N 48°32' W 122°45'612.1
2017-Dec-09 17:01N 48°26' W 122°47'714.0
2017-Dec-09 16:30N 48°21' W 122°54'713.8
2017-Dec-09 16:00N 48°18' W 123°03'4 7.2
2017-Dec-09 15:30N 48°14' W 123°06'4 3.6
2017-Dec-09 14:15N 48°10' W 123°06'0 0.0
2017-Dec-09 13:45N 48°10' W 123°06'0 0.0
2017-Dec-09 13:24N 48°10' W 123°06'0 0.0
2017-Dec-09 12:12N 48°10' W 123°06'0 0.0
2017-Dec-09 11:51N 48°10' W 123°06'0 0.0
2017-Dec-09 11:30N 48°10' W 123°06'0 0.0
2017-Dec-09 10:57N 48°10' W 123°06'0 0.0
2017-Dec-09 10:30N 48°10' W 123°06'0 0.0
2017-Dec-09 10:00N 48°10' W 123°06'0 0.0
2017-Dec-09 09:30N 48°10' W 123°06'0 0.0
2017-Dec-09 09:00N 48°10' W 123°06'0 0.0
2017-Dec-09 08:30N 48°10' W 123°06'0 0.0
2017-Dec-09 08:00N 48°10' W 123°06'0 0.0
2017-Dec-09 07:15N 48°10' W 123°06'0 0.0
2017-Dec-09 06:51N 48°10' W 123°06'0 0.0
2017-Dec-09 06:21N 48°10' W 123°06'0 0.0
2017-Dec-09 05:54N 48°10' W 123°06'0 0.0
2017-Dec-09 05:30N 48°10' W 123°06'0 0.1
2017-Dec-09 05:00N 48°10' W 123°06'5 9.5
2017-Dec-09 04:30N 48°14' W 123°03'510.6
2017-Dec-09 03:59N 48°19' W 122°59'5 9.5
2017-Dec-09 03:31N 48°22' W 122°54'510.4
2017-Dec-09 03:00N 48°25' W 122°48'510.6
2017-Dec-09 02:30N 48°30' W 122°43'4 8.5
2017-Dec-09 02:00N 48°32' W 122°38'2 4.5
2017-Dec-09 01:30N 48°31' W 122°35'0 0.2
2017-Dec-09 01:01N 48°31' W 122°35'1 2.5
2017-Dec-09 00:30N 48°31' W 122°33'0 0.1
2017-Dec-08 23:56N 48°31' W 122°33'0 0.0
2017-Dec-08 23:29N 48°31' W 122°33'0 0.0
2017-Dec-08 22:56N 48°31' W 122°33'0 0.0
2017-Dec-08 22:26N 48°31' W 122°33'0 0.0
2017-Dec-08 21:50N 48°31' W 122°33'0 0.0
2017-Dec-08 21:26N 48°31' W 122°33'0 0.0
2017-Dec-08 20:56N 48°31' W 122°33'0 0.0
2017-Dec-08 20:26N 48°31' W 122°33'0 0.0
2017-Dec-08 19:56N 48°31' W 122°33'0 0.0
2017-Dec-08 19:20N 48°31' W 122°33'0 0.0
2017-Dec-08 18:50N 48°31' W 122°33'0 0.0
2017-Dec-08 18:26N 48°31' W 122°33'0 0.0
2017-Dec-08 17:56N 48°31' W 122°33'0 0.1
2017-Dec-08 17:26N 48°31' W 122°33'1 2.6
2017-Dec-08 17:00N 48°31' W 122°34'2 3.3
2017-Dec-08 16:30N 48°31' W 122°37'0 0.3
2017-Dec-08 16:00N 48°31' W 122°37'2 4.9
2017-Dec-08 15:30N 48°30' W 122°40'1 1.0
2017-Dec-08 14:58N 48°31' W 122°40'0 0.0
2017-Dec-08 14:28N 48°31' W 122°40'0 0.0
2017-Dec-08 13:55N 48°31' W 122°40'0 0.0
2017-Dec-08 13:28N 48°31' W 122°40'0 0.0
2017-Dec-08 12:58N 48°31' W 122°40'0 0.1
2017-Dec-08 12:25N 48°31' W 122°40'0 0.1
2017-Dec-08 11:55N 48°31' W 122°40'0 0.0
2017-Dec-08 11:25N 48°31' W 122°40'0 0.0
2017-Dec-08 10:52N 48°31' W 122°40'0 0.0
2017-Dec-08 10:28N 48°31' W 122°40'2 4.5
2017-Dec-08 10:01N 48°31' W 122°37'0 0.1
2017-Dec-08 09:30N 48°31' W 122°37'1 2.0
2017-Dec-08 09:00N 48°31' W 122°35'1 2.2
2017-Dec-08 08:30N 48°30' W 122°34'0 0.8
2017-Dec-08 08:00N 48°31' W 122°35'0 0.3
2017-Dec-08 07:30N 48°31' W 122°35'0 0.7
2017-Dec-08 07:00N 48°31' W 122°34'2 3.2
2017-Dec-08 06:31N 48°31' W 122°36'0 1.0
2017-Dec-08 06:00N 48°31' W 122°37'2 4.3
2017-Dec-08 05:30N 48°31' W 122°34'0 0.2
2017-Dec-08 05:00N 48°31' W 122°34'0 0.6
2017-Dec-08 04:30N 48°31' W 122°35'0 0.4
2017-Dec-08 04:00N 48°31' W 122°35'1 1.2
2017-Dec-08 03:30N 48°31' W 122°35'0 0.1
2017-Dec-08 03:00N 48°31' W 122°35'0 0.7
2017-Dec-08 02:30N 48°31' W 122°34'3 5.7
2017-Dec-08 02:00N 48°34' W 122°35'510.2
2017-Dec-08 01:30N 48°39' W 122°33'510.0
2017-Dec-08 01:00N 48°44' W 122°31'1 0.5
2017-Dec-07 23:04N 48°45' W 122°30'0 0.0
2017-Dec-07 19:58N 48°45' W 122°30'0 0.0
2017-Dec-07 19:22N 48°45' W 122°30'0 0.0
2017-Dec-07 18:52N 48°45' W 122°30'0 0.0
2017-Dec-07 18:24N 48°45' W 122°30'3 7.9
2017-Dec-07 18:00N 48°42' W 122°32'5 9.7
2017-Dec-07 17:30N 48°38' W 122°36'510.0
2017-Dec-07 17:00N 48°34' W 122°40'3 6.2
2017-Dec-07 16:30N 48°31' W 122°41'1 2.4
2017-Dec-07 16:00N 48°31' W 122°39'2 3.2
2017-Dec-07 15:30N 48°31' W 122°37'0 0.2
2017-Dec-07 15:00N 48°31' W 122°37'1 1.7
2017-Dec-07 14:31N 48°31' W 122°36'0 0.1
2017-Dec-07 14:01N 48°31' W 122°36'0 0.1
2017-Dec-07 13:31N 48°31' W 122°36'0 0.0
2017-Dec-07 12:55N 48°31' W 122°36'0 0.0
2017-Dec-07 12:31N 48°31' W 122°36'0 0.1
2017-Dec-07 12:01N 48°31' W 122°36'0 0.1
2017-Dec-07 11:31N 48°31' W 122°36'0 0.1
2017-Dec-07 11:01N 48°31' W 122°36'0 0.1
2017-Dec-07 10:31N 48°31' W 122°36'0 0.1
2017-Dec-07 09:55N 48°31' W 122°36'0 0.0
2017-Dec-07 09:30N 48°31' W 122°36'0 0.2
2017-Dec-07 09:00N 48°31' W 122°36'0 0.0
2017-Dec-07 08:30N 48°31' W 122°36'1 1.5
2017-Dec-07 08:00N 48°31' W 122°35'0 0.7
2017-Dec-07 07:31N 48°30' W 122°34'1 1.5
2017-Dec-07 07:00N 48°31' W 122°34'0 0.4
2017-Dec-07 06:30N 48°31' W 122°34'0 0.4
2017-Dec-07 06:00N 48°31' W 122°34'5 9.1
2017-Dec-07 05:30N 48°35' W 122°37'510.6
2017-Dec-07 05:01N 48°40' W 122°41'611.6
2017-Dec-07 04:30N 48°45' W 122°44'6 4.9
2017-Dec-07 03:14N 48°52' W 122°46'0 1.5
2017-Dec-07 02:58N 48°51' W 122°45'3 2.8
2017-Dec-07 02:04N 48°49' W 122°44'0 6.0
2017-Dec-07 02:00N 48°49' W 122°44'0 0.5
2017-Dec-07 01:29N 48°49' W 122°43'0 0.0
2017-Dec-07 00:59N 48°49' W 122°43'0 0.0
2017-Dec-07 00:23N 48°49' W 122°43'0 0.0
2017-Dec-06 23:53N 48°49' W 122°43'0 0.0
2017-Dec-06 23:20N 48°49' W 122°43'0 0.0
2017-Dec-06 22:50N 48°49' W 122°43'0 0.0
2017-Dec-06 22:11N 48°49' W 122°43'0 0.0
2017-Dec-06 21:59N 48°49' W 122°43'0 0.0
2017-Dec-06 21:11N 48°49' W 122°43'0 0.0
2017-Dec-06 20:59N 48°49' W 122°43'  
2017-Dec-04 10:31N 48°40' W 122°43'5 9.7
2017-Dec-04 10:00N 48°45' W 122°45'5 8.6
2017-Dec-04 09:28N 48°50' W 122°44'0 0.3
2017-Dec-04 08:42N 48°50' W 122°43'0 1.8
2017-Dec-04 08:25N 48°49' W 122°43'0 0.2
2017-Dec-04 07:21N 48°49' W 122°43'0 0.1
2017-Dec-04 07:00N 48°49' W 122°43'0 0.0
2017-Dec-04 06:30N 48°49' W 122°43'0 0.0
2017-Dec-04 05:54N 48°49' W 122°43'0 0.0
2017-Dec-04 05:21N 48°49' W 122°43'0 0.0
2017-Dec-04 03:51N 48°49' W 122°43'0 0.0
2017-Dec-04 03:30N 48°49' W 122°43'0 0.1
2017-Dec-04 02:51N 48°49' W 122°43'0 0.0
2017-Dec-04 02:30N 48°49' W 122°43'0 0.0
2017-Dec-04 01:54N 48°49' W 122°43'0 0.0
2017-Dec-04 01:30N 48°49' W 122°43'0 0.0
2017-Dec-04 01:00N 48°49' W 122°43'0 0.0
2017-Dec-04 00:30N 48°49' W 122°43'0 0.0
2017-Dec-04 00:00N 48°49' W 122°43'0 0.0
2017-Dec-03 23:30N 48°49' W 122°43'0 0.0
2017-Dec-03 23:00N 48°49' W 122°43'0 0.0
2017-Dec-03 22:21N 48°49' W 122°43'0 0.0
2017-Dec-03 21:54N 48°49' W 122°43'0 0.0
2017-Dec-03 21:30N 48°49' W 122°43'0 0.0
2017-Dec-03 21:00N 48°49' W 122°43'0 0.0
2017-Dec-03 20:30N 48°49' W 122°43'1 1.0
2017-Dec-03 19:58N 48°50' W 122°43'0 0.3
2017-Dec-03 19:30N 48°49' W 122°43'1 2.2
2017-Dec-03 18:59N 48°48' W 122°44'4 8.2
2017-Dec-03 18:29N 48°44' W 122°45'511.2
2017-Dec-03 18:00N 48°39' W 122°44'5 9.3
2017-Dec-03 17:30N 48°35' W 122°45'510.2
2017-Dec-03 17:00N 48°29' W 122°45'510.4
2017-Dec-03 16:30N 48°25' W 122°47'5 9.1
2017-Dec-03 16:00N 48°22' W 122°53'5 9.5
2017-Dec-03 15:30N 48°19' W 122°59'611.7
2017-Dec-03 14:59N 48°16' W 123°07'1 1.2
2017-Dec-03 14:29N 48°15' W 123°06'5 9.8
2017-Dec-03 14:00N 48°11' W 123°06'1 0.5
2017-Dec-03 12:07N 48°10' W 123°06'0 0.0
2017-Dec-03 10:25N 48°10' W 123°06'0 0.0
2017-Dec-03 07:58N 48°10' W 123°06'0 0.0
2017-Dec-03 07:25N 48°10' W 123°06'0 0.0
2017-Dec-03 06:58N 48°10' W 123°06'0 0.0
2017-Dec-03 06:25N 48°10' W 123°06'0 0.0
2017-Dec-03 05:58N 48°10' W 123°06'0 0.0
2017-Dec-03 05:01N 48°10' W 123°06'0 0.1
2017-Dec-03 04:46N 48°10' W 123°06'0 0.0
2017-Dec-03 04:22N 48°10' W 123°06'0 0.0
2017-Dec-03 03:58N 48°10' W 123°06'0 0.0
2017-Dec-03 03:22N 48°10' W 123°06'0 0.0
2017-Dec-03 02:43N 48°10' W 123°06'0 0.0
2017-Dec-03 02:22N 48°10' W 123°06'0 0.0
2017-Dec-03 01:55N 48°10' W 123°06'0 0.0
2017-Dec-03 01:25N 48°10' W 123°06'0 0.0
2017-Dec-03 00:16N 48°10' W 123°06'0 0.0
2017-Dec-02 23:37N 48°10' W 123°06'0 0.0
2017-Dec-02 23:19N 48°10' W 123°06'0 0.0
2017-Dec-02 19:04N 48°10' W 123°06'0 0.0
2017-Dec-02 18:58N 48°10' W 123°06'0 0.0
2017-Dec-02 18:13N 48°10' W 123°06'0 0.0
2017-Dec-02 17:55N 48°10' W 123°06'0 0.0
2017-Dec-02 17:22N 48°10' W 123°06'0 0.0
2017-Dec-02 16:58N 48°10' W 123°06'0 0.1
2017-Dec-02 16:15N 48°10' W 123°06'2 7.9
2017-Dec-02 16:00N 48°12' W 123°05'3 6.0
2017-Dec-02 15:30N 48°15' W 123°06'3 6.8
2017-Dec-02 15:00N 48°18' W 123°04'713.6
2017-Dec-02 14:31N 48°21' W 122°56'713.2
2017-Dec-02 14:00N 48°25' W 122°47'510.2
2017-Dec-02 13:30N 48°30' W 122°44'510.4
2017-Dec-02 13:00N 48°35' W 122°45'5 9.3
2017-Dec-02 12:31N 48°39' W 122°44'4 8.6
2017-Dec-02 12:00N 48°44' W 122°45'2 4.3
2017-Dec-02 11:30N 48°46' W 122°46'2 4.1
2017-Dec-02 10:55N 48°48' W 122°46'3 6.8
2017-Dec-02 10:30N 48°51' W 122°47'1 1.7
2017-Dec-02 09:53N 48°52' W 122°46'1 1.6
2017-Dec-02 09:10N 48°51' W 122°46'0 2.2
2017-Dec-02 09:00N 48°50' W 122°45'6 8.5
2017-Dec-02 08:18N 48°44' W 122°44'311.0
2017-Dec-02 08:00N 48°41' W 122°42'510.2
2017-Dec-02 07:30N 48°37' W 122°39'510.4
2017-Dec-02 07:00N 48°32' W 122°40'3 6.7
2017-Dec-02 06:30N 48°31' W 122°35'1 1.4
2017-Dec-02 06:00N 48°31' W 122°35'1 1.6
2017-Dec-02 05:30N 48°31' W 122°34'4 8.6
2017-Dec-02 05:00N 48°36' W 122°34'5 9.6
2017-Dec-02 04:30N 48°40' W 122°33'5 9.2
2017-Dec-02 04:00N 48°45' W 122°30'0 0.0
2017-Dec-02 02:30N 48°45' W 122°30'0 0.0
2017-Dec-02 01:51N 48°45' W 122°30'0 0.0
2017-Dec-02 01:24N 48°45' W 122°30'0 0.0
2017-Dec-02 01:00N 48°45' W 122°30'0 0.0
2017-Dec-02 00:21N 48°45' W 122°30'0 0.0
2017-Dec-02 00:00N 48°45' W 122°30'0 0.0
2017-Dec-01 23:30N 48°45' W 122°30'0 0.0
2017-Dec-01 22:45N 48°45' W 122°30'0 0.0
2017-Dec-01 22:09N 48°45' W 122°30'0 0.0
2017-Dec-01 22:00N 48°45' W 122°30'0 0.0
2017-Dec-01 21:30N 48°45' W 122°30'0 0.0
2017-Dec-01 20:00N 48°45' W 122°30'0 0.0
2017-Dec-01 19:21N 48°45' W 122°30'0 0.0
2017-Dec-01 19:00N 48°45' W 122°30'1 2.1
2017-Dec-01 18:31N 48°45' W 122°31'0 0.0
2017-Dec-01 18:00N 48°46' W 122°31'1 2.4
2017-Dec-01 17:30N 48°45' W 122°32'1 1.6
2017-Dec-01 17:00N 48°44' W 122°33'  

Dump ship's entire track history